createdAt,value
2022-10-18T07:29:35.112Z,971.11
2022-10-18T07:30:34.939Z,971.08
2022-10-18T07:31:34.927Z,971.12
2022-10-18T07:32:34.917Z,971.09
2022-10-18T07:33:34.920Z,971.08
2022-10-18T07:34:34.927Z,971.10
2022-10-18T07:35:34.879Z,971.07
2022-10-18T07:36:34.877Z,971.05
2022-10-18T07:37:35.229Z,971.08
2022-10-18T07:38:34.849Z,971.08
2022-10-18T07:39:34.835Z,971.09
2022-10-18T07:40:34.835Z,971.08
2022-10-18T07:41:34.818Z,971.04
2022-10-18T07:42:37.848Z,971.05
2022-10-18T07:43:34.806Z,971.00
2022-10-18T07:44:34.786Z,971.06
2022-10-18T07:45:34.859Z,971.10
2022-10-18T07:46:34.767Z,971.08
2022-10-18T07:47:35.364Z,971.10
2022-10-18T07:48:34.749Z,971.08
2022-10-18T07:49:34.862Z,971.07
2022-10-18T07:50:34.881Z,971.05
2022-10-18T07:51:34.719Z,971.04
2022-10-18T07:52:34.724Z,971.03
2022-10-18T07:53:34.710Z,971.09
2022-10-18T07:54:34.704Z,971.10
2022-10-18T07:55:34.681Z,971.14
2022-10-18T07:56:34.719Z,971.08
2022-10-18T07:57:37.649Z,971.09
2022-10-18T07:58:34.651Z,971.11
2022-10-18T07:59:34.627Z,971.09
2022-10-18T08:00:34.621Z,971.14
2022-10-18T08:01:34.675Z,971.09
2022-10-18T08:02:34.600Z,971.13
2022-10-18T08:03:34.598Z,971.14
2022-10-18T08:04:34.623Z,971.15
2022-10-18T08:05:34.589Z,971.18
2022-10-18T08:06:34.578Z,971.14
2022-10-18T08:07:34.722Z,971.13
2022-10-18T08:08:34.547Z,971.13
2022-10-18T08:09:34.538Z,971.08
2022-10-18T08:10:34.517Z,971.11
2022-10-18T08:11:34.526Z,971.14
2022-10-18T08:12:37.496Z,971.07
2022-10-18T08:13:34.521Z,971.03
2022-10-18T08:14:34.478Z,971.09
2022-10-18T08:15:34.469Z,971.05
2022-10-18T08:16:34.471Z,971.08
2022-10-18T08:17:34.825Z,971.06
2022-10-18T08:18:34.426Z,971.03
2022-10-18T08:19:34.438Z,971.06
2022-10-18T08:20:35.408Z,971.07
2022-10-18T08:21:34.448Z,971.04
2022-10-18T08:22:34.389Z,971.07
2022-10-18T08:23:34.389Z,971.08
2022-10-18T08:24:34.396Z,971.10
2022-10-18T08:26:34.362Z,971.04
2022-10-18T08:27:37.340Z,971.03
2022-10-18T08:28:34.403Z,971.01
2022-10-18T08:29:34.416Z,970.98
2022-10-18T08:30:34.319Z,971.06
2022-10-18T08:31:34.312Z,971.03
2022-10-18T08:32:34.709Z,971.01
2022-10-18T08:33:34.278Z,971.00
2022-10-18T08:34:34.329Z,971.01
2022-10-18T08:35:34.263Z,971.03
2022-10-18T08:36:34.300Z,971.01
2022-10-18T08:37:34.752Z,971.06
2022-10-18T08:38:34.233Z,971.02
2022-10-18T08:39:34.213Z,971.02
2022-10-18T08:40:34.263Z,971.06
2022-10-18T08:41:34.192Z,971.01
2022-10-18T08:42:37.173Z,971.07
2022-10-18T08:44:34.222Z,971.06
2022-10-18T08:45:42.676Z,971.12
2022-10-18T08:46:34.135Z,971.12
2022-10-18T08:47:34.558Z,971.09
2022-10-18T08:48:34.123Z,971.11
2022-10-18T08:49:46.852Z,971.13
2022-10-18T08:50:34.110Z,971.13
2022-10-18T08:51:34.089Z,971.09
2022-10-18T08:52:34.165Z,971.12
2022-10-18T08:53:36.252Z,971.11
2022-10-18T08:54:34.051Z,971.12
2022-10-18T08:55:34.060Z,971.11
2022-10-18T08:56:34.042Z,971.11
2022-10-18T08:57:37.044Z,971.11
2022-10-18T08:58:34.041Z,971.10
2022-10-18T08:59:33.997Z,971.09
2022-10-18T09:00:34.030Z,971.07
2022-10-18T09:01:34.022Z,971.10
2022-10-18T09:02:34.335Z,971.03
2022-10-18T09:03:34.025Z,971.01
2022-10-18T09:04:33.945Z,971.00
2022-10-18T09:05:33.957Z,971.02
2022-10-18T09:06:33.931Z,970.96
2022-10-18T09:07:33.917Z,970.97
2022-10-18T09:08:33.908Z,970.97
2022-10-18T09:09:33.913Z,970.97
2022-10-18T09:10:33.898Z,970.98
2022-10-18T09:11:33.882Z,970.95
2022-10-18T09:12:36.931Z,970.97
2022-10-18T09:13:33.874Z,971.00
2022-10-18T09:14:33.855Z,970.92
2022-10-18T09:15:33.863Z,970.90
2022-10-18T09:16:33.833Z,970.92
2022-10-18T09:17:33.853Z,970.86
2022-10-18T09:18:33.941Z,970.88
2022-10-18T09:19:33.806Z,970.85
2022-10-18T09:20:33.795Z,970.79
2022-10-18T09:21:33.779Z,970.84
2022-10-18T09:22:34.095Z,970.76
2022-10-18T09:23:33.772Z,970.79
2022-10-18T09:24:33.738Z,970.75
2022-10-18T09:25:33.748Z,970.82
2022-10-18T09:26:33.734Z,970.78
2022-10-18T09:27:36.715Z,970.77
2022-10-18T09:28:33.777Z,970.76
2022-10-18T09:29:33.703Z,970.75
2022-10-18T09:30:33.683Z,970.78
2022-10-18T09:31:33.671Z,970.76
2022-10-18T09:32:34.093Z,970.78
2022-10-18T09:33:33.651Z,970.77
2022-10-18T09:34:33.656Z,970.79
2022-10-18T09:35:33.633Z,970.82
2022-10-18T09:36:33.626Z,970.80
2022-10-18T09:37:33.604Z,970.78
2022-10-18T09:38:34.053Z,970.80
2022-10-18T09:39:33.598Z,970.81
2022-10-18T09:40:33.574Z,970.85
2022-10-18T09:41:33.568Z,970.83
2022-10-18T09:42:36.543Z,970.82
2022-10-18T09:43:33.572Z,970.85
2022-10-18T09:44:33.534Z,970.82
2022-10-18T09:45:33.529Z,970.88
2022-10-18T09:46:33.507Z,970.87
2022-10-18T09:47:33.501Z,970.86
2022-10-18T09:48:33.495Z,970.85
2022-10-18T09:49:33.518Z,970.84
2022-10-18T09:50:33.461Z,970.83
2022-10-18T09:51:33.449Z,970.80
2022-10-18T09:52:33.829Z,970.77
2022-10-18T09:53:33.439Z,970.80
2022-10-18T09:54:33.466Z,970.81
2022-10-18T09:55:33.407Z,970.80
2022-10-18T09:56:37.870Z,970.80
2022-10-18T09:57:36.383Z,970.80
2022-10-18T09:58:33.399Z,970.75
2022-10-18T09:59:33.373Z,970.71
2022-10-18T10:00:33.355Z,970.70
2022-10-18T10:01:33.347Z,970.72
2022-10-18T10:02:33.367Z,970.72
2022-10-18T10:03:33.329Z,970.70
2022-10-18T10:04:33.317Z,970.72
2022-10-18T10:05:33.341Z,970.75
2022-10-18T10:06:33.301Z,970.74
2022-10-18T10:07:34.846Z,970.77
2022-10-18T10:08:33.274Z,970.75
2022-10-18T10:09:33.263Z,970.77
2022-10-18T10:10:33.272Z,970.78
2022-10-18T10:11:33.241Z,970.72
2022-10-18T10:12:36.265Z,970.74
2022-10-18T10:13:33.233Z,970.72
2022-10-18T10:14:33.206Z,970.71
2022-10-18T10:15:37.088Z,970.74
2022-10-18T10:16:33.187Z,970.70
2022-10-18T10:17:33.471Z,970.69
2022-10-18T10:18:33.186Z,970.68
2022-10-18T10:19:33.158Z,970.65
2022-10-18T10:20:33.158Z,970.68
2022-10-18T10:21:33.134Z,970.66
2022-10-18T10:22:33.118Z,970.71
2022-10-18T10:23:33.132Z,970.68
2022-10-18T10:24:33.101Z,970.68
2022-10-18T10:25:33.095Z,970.68
2022-10-18T10:26:33.073Z,970.69
2022-10-18T10:27:44.385Z,970.70
2022-10-18T10:28:33.147Z,970.67
2022-10-18T10:29:44.170Z,970.68
2022-10-18T10:30:33.039Z,970.68
2022-10-18T10:31:33.028Z,970.68
2022-10-18T10:32:33.018Z,970.65
2022-10-18T10:33:33.002Z,970.67
2022-10-18T10:34:33.000Z,970.59
2022-10-18T10:35:52.524Z,970.62
2022-10-18T10:36:33.974Z,970.62
2022-10-18T10:37:33.356Z,970.64
2022-10-18T10:38:32.957Z,970.61
2022-10-18T10:39:33.012Z,970.64
2022-10-18T10:40:32.930Z,970.60
2022-10-18T10:42:35.910Z,970.60
2022-10-18T10:43:37.557Z,970.62
2022-10-18T10:44:32.913Z,970.62
2022-10-18T10:45:32.883Z,970.64
2022-10-18T10:46:32.868Z,970.63
2022-10-18T10:47:32.852Z,970.67
2022-10-18T10:48:33.504Z,970.64
2022-10-18T10:49:40.178Z,970.66
2022-10-18T10:51:32.846Z,970.58
2022-10-18T10:52:32.818Z,970.62
2022-10-18T10:53:32.800Z,970.60
2022-10-18T10:54:32.788Z,970.59
2022-10-18T10:55:35.237Z,970.60
2022-10-18T10:56:32.789Z,970.56
2022-10-18T10:57:35.746Z,970.55
2022-10-18T10:58:32.758Z,970.51
2022-10-18T10:59:32.807Z,970.52
2022-10-18T11:00:32.770Z,970.50
2022-10-18T11:01:32.708Z,970.51
2022-10-18T11:02:33.047Z,970.50
2022-10-18T11:03:32.740Z,970.48
2022-10-18T11:04:44.020Z,970.46
2022-10-18T11:05:32.677Z,970.49
2022-10-18T11:06:32.668Z,970.49
2022-10-18T11:07:32.642Z,970.50
2022-10-18T11:08:32.655Z,970.52
2022-10-18T11:09:32.618Z,970.48
2022-10-18T11:10:32.621Z,970.45
2022-10-18T11:11:32.621Z,970.52
2022-10-18T11:12:35.753Z,970.49
2022-10-18T11:13:32.596Z,970.43
2022-10-18T11:14:32.587Z,970.41
2022-10-18T11:15:32.564Z,970.41
2022-10-18T11:16:32.597Z,970.36
2022-10-18T11:17:39.563Z,970.33
2022-10-18T11:18:32.536Z,970.34
2022-10-18T11:19:32.533Z,970.33
2022-10-18T11:20:32.516Z,970.31
2022-10-18T11:21:40.618Z,970.33
2022-10-18T11:22:32.893Z,970.35
2022-10-18T11:23:32.488Z,970.29
2022-10-18T11:24:32.470Z,970.24
2022-10-18T11:25:32.461Z,970.28
2022-10-18T11:26:32.452Z,970.28
2022-10-18T11:27:35.473Z,970.26
2022-10-18T11:28:41.528Z,970.26
2022-10-18T11:29:32.423Z,970.23
2022-10-18T11:30:32.413Z,970.26
2022-10-18T11:31:32.452Z,970.23
2022-10-18T11:32:32.615Z,970.21
2022-10-18T11:34:07.171Z,970.20
2022-10-18T11:34:33.501Z,970.19
2022-10-18T11:35:32.355Z,970.15
2022-10-18T11:36:34.052Z,970.16
2022-10-18T11:37:39.532Z,970.13
2022-10-18T11:38:32.330Z,970.18
2022-10-18T11:39:32.326Z,970.14
2022-10-18T11:40:32.317Z,970.07
2022-10-18T11:41:32.342Z,970.11
2022-10-18T11:42:39.696Z,970.05
2022-10-18T11:43:50.540Z,969.98
2022-10-18T11:44:33.272Z,970.01
2022-10-18T11:45:32.265Z,969.99
2022-10-18T11:46:32.254Z,969.98
2022-10-18T11:47:32.426Z,969.99
2022-10-18T11:48:32.230Z,969.97
2022-10-18T11:49:32.221Z,969.94
2022-10-18T11:50:32.222Z,969.96
2022-10-18T11:51:34.357Z,969.95
2022-10-18T11:52:33.223Z,969.91
2022-10-18T11:53:32.339Z,969.90
2022-10-18T11:54:32.234Z,969.83
2022-10-18T11:55:33.184Z,969.84
2022-10-18T11:56:32.155Z,969.82
2022-10-18T11:57:35.576Z,969.76
2022-10-18T11:58:32.138Z,969.80
2022-10-18T11:59:32.191Z,969.78
2022-10-18T12:00:32.110Z,969.77
2022-10-18T12:01:32.098Z,969.77
2022-10-18T12:02:32.533Z,969.73
2022-10-18T12:03:32.081Z,969.72
2022-10-18T12:04:32.098Z,969.75
2022-10-18T12:05:33.059Z,969.73
2022-10-18T12:06:32.061Z,969.75
2022-10-18T12:07:32.567Z,969.71
2022-10-18T12:08:32.021Z,969.74
2022-10-18T12:09:32.020Z,969.71
2022-10-18T12:10:44.262Z,969.74
2022-10-18T12:11:33.057Z,969.73
2022-10-18T12:12:35.241Z,969.71
2022-10-18T12:13:31.991Z,969.71
2022-10-18T12:14:31.973Z,969.72
2022-10-18T12:15:31.945Z,969.73
2022-10-18T12:16:50.429Z,969.73
2022-10-18T12:17:43.147Z,969.78
2022-10-18T12:18:32.928Z,969.73
2022-10-18T12:19:31.918Z,969.78
2022-10-18T12:20:31.918Z,969.76
2022-10-18T12:21:31.944Z,969.84
2022-10-18T12:22:32.182Z,969.78
2022-10-18T12:23:31.876Z,969.80
2022-10-18T12:24:31.868Z,969.81
2022-10-18T12:25:31.910Z,969.82
2022-10-18T12:26:31.867Z,969.81
2022-10-18T12:27:34.961Z,969.83
2022-10-18T12:28:31.864Z,969.85
2022-10-18T12:29:31.804Z,969.84
2022-10-18T12:30:31.821Z,969.83
2022-10-18T12:31:31.790Z,969.83
2022-10-18T12:32:32.128Z,969.82
2022-10-18T12:33:31.787Z,969.82
2022-10-18T12:34:31.751Z,969.81
2022-10-18T12:35:31.803Z,969.81
2022-10-18T12:36:31.741Z,969.79
2022-10-18T12:37:32.073Z,969.76
2022-10-18T12:38:31.714Z,969.76
2022-10-18T12:39:43.323Z,969.75
2022-10-18T12:40:32.875Z,969.67
2022-10-18T12:41:31.687Z,969.73
2022-10-18T12:42:34.664Z,969.67
2022-10-18T12:43:31.781Z,969.70
2022-10-18T12:44:31.676Z,969.68
2022-10-18T12:45:31.644Z,969.67
2022-10-18T12:46:31.658Z,969.60
2022-10-18T12:47:31.918Z,969.67
2022-10-18T12:48:31.617Z,969.62
2022-10-18T12:49:31.702Z,969.64
2022-10-18T12:50:31.597Z,969.65
2022-10-18T12:51:31.640Z,969.65
2022-10-18T12:52:31.568Z,969.66
2022-10-18T12:53:31.560Z,969.65
2022-10-18T12:54:31.553Z,969.65
2022-10-18T12:55:31.604Z,969.70
2022-10-18T12:56:31.537Z,969.69
2022-10-18T12:57:34.693Z,969.73
2022-10-18T12:58:31.536Z,969.70
2022-10-18T12:59:31.500Z,969.73
2022-10-18T13:00:31.563Z,969.70
2022-10-18T13:01:31.554Z,969.68
2022-10-18T13:02:31.847Z,969.64
2022-10-18T13:03:31.465Z,969.65
2022-10-18T13:04:31.464Z,969.65
2022-10-18T13:05:41.997Z,969.60
2022-10-18T13:06:32.414Z,969.59
2022-10-18T13:07:32.000Z,969.55
2022-10-18T13:08:31.415Z,969.57
2022-10-18T13:09:31.407Z,969.58
2022-10-18T13:10:31.390Z,969.54
2022-10-18T13:11:31.366Z,969.56
2022-10-18T13:12:34.480Z,969.55
2022-10-18T13:13:39.568Z,969.53
2022-10-18T13:14:31.338Z,969.51
2022-10-18T13:15:34.171Z,969.54
2022-10-18T13:16:31.318Z,969.51
2022-10-18T13:17:31.618Z,969.57
2022-10-18T13:18:31.347Z,969.53
2022-10-18T13:19:31.290Z,969.50
2022-10-18T13:20:31.291Z,969.48
2022-10-18T13:21:31.281Z,969.46
2022-10-18T13:22:31.261Z,969.48
2022-10-18T13:23:32.722Z,969.46
2022-10-18T13:24:31.232Z,969.41
2022-10-18T13:25:31.283Z,969.40
2022-10-18T13:26:31.215Z,969.42
2022-10-18T13:27:36.614Z,969.38
2022-10-18T13:28:31.273Z,969.39
2022-10-18T13:29:31.196Z,969.38
2022-10-18T13:30:31.282Z,969.39
2022-10-18T13:31:31.163Z,969.40
2022-10-18T13:32:31.397Z,969.42
2022-10-18T13:33:31.144Z,969.41
2022-10-18T13:34:31.134Z,969.40
2022-10-18T13:35:31.127Z,969.43
2022-10-18T13:36:31.117Z,969.45
2022-10-18T13:37:31.214Z,969.40
2022-10-18T13:38:31.088Z,969.41
2022-10-18T13:39:31.087Z,969.43
2022-10-18T13:40:31.076Z,969.41
2022-10-18T13:41:34.334Z,969.40
2022-10-18T13:42:34.413Z,969.39
2022-10-18T13:43:31.068Z,969.36
2022-10-18T13:44:31.031Z,969.38
2022-10-18T13:45:31.033Z,969.41
2022-10-18T13:46:31.011Z,969.41
2022-10-18T13:47:31.002Z,969.39
2022-10-18T13:48:31.023Z,969.38
2022-10-18T13:49:30.972Z,969.37
2022-10-18T13:50:30.976Z,969.38
2022-10-18T13:51:30.952Z,969.37
2022-10-18T13:52:31.209Z,969.36
2022-10-18T13:53:30.940Z,969.38
2022-10-18T13:54:30.993Z,969.38
2022-10-18T13:55:30.918Z,969.40
2022-10-18T13:56:30.912Z,969.35
2022-10-18T13:57:33.894Z,969.38
2022-10-18T13:58:30.903Z,969.36
2022-10-18T13:59:30.896Z,969.34
2022-10-18T14:00:30.865Z,969.35
2022-10-18T14:01:30.875Z,969.37
2022-10-18T14:02:50.516Z,969.34
2022-10-18T14:03:55.758Z,969.36
2022-10-18T14:04:31.828Z,969.33
2022-10-18T14:05:30.828Z,969.34
2022-10-18T14:06:30.808Z,969.33
2022-10-18T14:07:30.798Z,969.31
2022-10-18T14:08:30.842Z,969.31
2022-10-18T14:09:43.655Z,969.33
2022-10-18T14:10:43.847Z,969.34
2022-10-18T14:11:31.750Z,969.37
2022-10-18T14:12:34.010Z,969.34
2022-10-18T14:13:30.773Z,969.37
2022-10-18T14:14:30.713Z,969.34
2022-10-18T14:15:30.722Z,969.32
2022-10-18T14:16:30.706Z,969.33
2022-10-18T14:17:30.752Z,969.34
2022-10-18T14:18:31.826Z,969.32
2022-10-18T14:19:30.694Z,969.29
2022-10-18T14:20:30.661Z,969.31
2022-10-18T14:21:31.685Z,969.35
2022-10-18T14:22:30.949Z,969.30
2022-10-18T14:23:30.655Z,969.31
2022-10-18T14:24:30.618Z,969.33
2022-10-18T14:25:30.607Z,969.34
2022-10-18T14:26:30.623Z,969.30
2022-10-18T14:27:33.829Z,969.32
2022-10-18T14:28:48.031Z,969.29
2022-10-18T14:29:31.619Z,969.32
2022-10-18T14:30:30.560Z,969.32
2022-10-18T14:31:30.540Z,969.31
2022-10-18T14:32:30.533Z,969.33
2022-10-18T14:33:30.529Z,969.40
2022-10-18T14:34:30.540Z,969.43
2022-10-18T14:35:32.982Z,969.43
2022-10-18T14:36:30.495Z,969.43
2022-10-18T14:37:30.878Z,969.40
2022-10-18T14:38:30.471Z,969.40
2022-10-18T14:39:30.482Z,969.39
2022-10-18T14:40:30.444Z,969.42
2022-10-18T14:41:30.442Z,969.37
2022-10-18T14:42:33.423Z,969.42
2022-10-18T14:43:30.540Z,969.39
2022-10-18T14:44:30.425Z,969.40
2022-10-18T14:45:30.416Z,969.36
2022-10-18T14:46:31.778Z,969.34
2022-10-18T14:47:30.781Z,969.33
2022-10-18T14:48:30.375Z,969.37
2022-10-18T14:50:30.905Z,969.40
2022-10-18T14:51:30.347Z,969.38
2022-10-18T14:52:35.109Z,969.35
2022-10-18T14:53:30.310Z,969.37
2022-10-18T14:54:31.947Z,969.39
2022-10-18T14:55:30.326Z,969.38
2022-10-18T14:56:30.286Z,969.37
2022-10-18T14:57:33.726Z,969.33
2022-10-18T14:58:30.278Z,969.36
2022-10-18T14:59:30.241Z,969.36
2022-10-18T15:00:30.286Z,969.38
2022-10-18T15:01:30.300Z,969.39
2022-10-18T15:02:30.497Z,969.37
2022-10-18T15:03:30.213Z,969.33
2022-10-18T15:04:30.199Z,969.39
2022-10-18T15:05:30.223Z,969.39
2022-10-18T15:06:30.205Z,969.39
2022-10-18T15:07:30.411Z,969.35
2022-10-18T15:08:30.175Z,969.39
2022-10-18T15:09:30.147Z,969.36
2022-10-18T15:10:30.187Z,969.34
2022-10-18T15:11:30.134Z,969.31
2022-10-18T15:12:40.879Z,969.34
2022-10-18T15:13:31.114Z,969.32
2022-10-18T15:14:30.123Z,969.30
2022-10-18T15:15:30.078Z,969.31
2022-10-18T15:16:30.081Z,969.32
2022-10-18T15:17:30.067Z,969.31
2022-10-18T15:19:30.067Z,969.27
2022-10-18T15:20:30.028Z,969.27
2022-10-18T15:21:30.048Z,969.25
2022-10-18T15:22:32.399Z,969.22
2022-10-18T15:23:30.010Z,969.22
2022-10-18T15:24:29.988Z,969.19
2022-10-18T15:25:31.969Z,969.19
2022-10-18T15:26:30.182Z,969.20
2022-10-18T15:27:33.248Z,969.18
2022-10-18T15:29:29.933Z,969.15
2022-10-18T15:30:29.932Z,969.21
2022-10-18T15:31:29.927Z,969.15
2022-10-18T15:32:30.141Z,969.14
2022-10-18T15:33:29.909Z,969.14
2022-10-18T15:34:29.907Z,969.13
2022-10-18T15:35:29.898Z,969.14
2022-10-18T15:36:29.904Z,969.13
2022-10-18T15:37:30.103Z,969.09
2022-10-18T15:38:29.849Z,969.18
2022-10-18T15:39:29.828Z,969.14
2022-10-18T15:40:29.835Z,969.18
2022-10-18T15:41:29.816Z,969.17
2022-10-18T15:42:32.818Z,969.13
2022-10-18T15:43:29.809Z,969.11
2022-10-18T15:44:29.785Z,969.10
2022-10-18T15:45:29.778Z,969.09
2022-10-18T15:46:29.766Z,969.09
2022-10-18T15:47:29.892Z,969.06
2022-10-18T15:48:29.741Z,969.12
2022-10-18T15:49:29.731Z,969.12
2022-10-18T15:50:29.718Z,969.14
2022-10-18T15:51:29.701Z,969.08
2022-10-18T15:52:33.846Z,969.12
2022-10-18T15:53:29.698Z,969.12
2022-10-18T15:54:29.683Z,969.15
2022-10-18T15:55:29.708Z,969.14
2022-10-18T15:56:29.669Z,969.16
2022-10-18T15:57:32.971Z,969.15
2022-10-18T15:58:29.696Z,969.19
2022-10-18T15:59:29.624Z,969.15
2022-10-18T16:00:29.616Z,969.12
2022-10-18T16:01:29.674Z,969.10
2022-10-18T16:02:29.606Z,969.16
2022-10-18T16:03:29.592Z,969.16
2022-10-18T16:04:29.594Z,969.19
2022-10-18T16:05:29.574Z,969.17
2022-10-18T16:06:29.568Z,969.15
2022-10-18T16:07:29.767Z,969.14
2022-10-18T16:08:29.538Z,969.18
2022-10-18T16:09:29.529Z,969.16
2022-10-18T16:10:29.525Z,969.13
2022-10-18T16:11:29.514Z,969.12
2022-10-18T16:12:32.490Z,969.10
2022-10-18T16:13:29.500Z,969.08
2022-10-18T16:14:29.501Z,969.12
2022-10-18T16:15:29.460Z,969.12
2022-10-18T16:16:29.460Z,969.09
2022-10-18T16:17:29.584Z,969.07
2022-10-18T16:18:29.433Z,969.09
2022-10-18T16:19:29.443Z,969.10
2022-10-18T16:20:29.412Z,969.13
2022-10-18T16:21:29.431Z,969.13
2022-10-18T16:22:31.146Z,969.10
2022-10-18T16:23:29.379Z,969.12
2022-10-18T16:24:29.374Z,969.07
2022-10-18T16:25:29.363Z,969.09
2022-10-18T16:26:29.408Z,969.04
2022-10-18T16:27:32.337Z,969.03
2022-10-18T16:28:29.396Z,969.04
2022-10-18T16:29:29.326Z,969.04
2022-10-18T16:30:29.305Z,969.01
2022-10-18T16:31:29.323Z,969.00
2022-10-18T16:32:29.371Z,969.02
2022-10-18T16:33:29.277Z,969.06
2022-10-18T16:34:29.367Z,969.00
2022-10-18T16:35:29.258Z,969.06
2022-10-18T16:36:29.247Z,969.05
2022-10-18T16:37:29.237Z,969.07
2022-10-18T16:38:32.625Z,969.03
2022-10-18T16:39:29.247Z,969.05
2022-10-18T16:40:29.208Z,969.07
2022-10-18T16:41:29.195Z,969.11
2022-10-18T16:42:32.447Z,969.12
2022-10-18T16:43:29.223Z,969.09
2022-10-18T16:44:29.201Z,969.16
2022-10-18T16:45:29.150Z,969.16
2022-10-18T16:46:29.142Z,969.17
2022-10-18T16:47:29.123Z,969.14
2022-10-18T16:48:29.111Z,969.16
2022-10-18T16:49:29.109Z,969.18
2022-10-18T16:50:30.866Z,969.22
2022-10-18T16:51:29.114Z,969.23
2022-10-18T16:52:29.082Z,969.23
2022-10-18T16:53:29.062Z,969.24
2022-10-18T16:54:29.063Z,969.28
2022-10-18T16:55:29.044Z,969.27
2022-10-18T16:56:29.058Z,969.26
2022-10-18T16:57:32.033Z,969.26
2022-10-18T16:58:29.037Z,969.29
2022-10-18T16:59:29.011Z,969.23
2022-10-18T17:00:28.986Z,969.26
2022-10-18T17:01:29.040Z,969.26
2022-10-18T17:02:28.977Z,969.29
2022-10-18T17:03:28.967Z,969.23
2022-10-18T17:04:28.977Z,969.28
2022-10-18T17:05:28.995Z,969.28
2022-10-18T17:06:29.029Z,969.31
2022-10-18T17:07:28.987Z,969.32
2022-10-18T17:08:28.969Z,969.36
2022-10-18T17:09:28.961Z,969.30
2022-10-18T17:10:28.949Z,969.34
2022-10-18T17:11:28.931Z,969.39
2022-10-18T17:12:32.235Z,969.36
2022-10-18T17:13:28.923Z,969.38
2022-10-18T17:14:28.903Z,969.34
2022-10-18T17:15:32.811Z,969.35
2022-10-18T17:17:28.883Z,969.34
2022-10-18T17:18:28.871Z,969.37
2022-10-18T17:19:28.953Z,969.42
2022-10-18T17:20:28.836Z,969.37
2022-10-18T17:21:28.844Z,969.37
2022-10-18T17:22:28.820Z,969.38
2022-10-18T17:23:28.815Z,969.40
2022-10-18T17:24:28.795Z,969.40
2022-10-18T17:26:29.920Z,969.46
2022-10-18T17:27:32.040Z,969.47
2022-10-18T17:28:28.797Z,969.48
2022-10-18T17:29:28.757Z,969.47
2022-10-18T17:30:28.747Z,969.49
2022-10-18T17:31:28.727Z,969.51
2022-10-18T17:32:28.715Z,969.47
2022-10-18T17:33:28.707Z,969.49
2022-10-18T17:34:28.815Z,969.51
2022-10-18T17:35:28.693Z,969.52
2022-10-18T17:36:28.688Z,969.51
2022-10-18T17:37:28.671Z,969.53
2022-10-18T17:38:28.667Z,969.52
2022-10-18T17:39:28.644Z,969.54
2022-10-18T17:40:28.629Z,969.54
2022-10-18T17:41:28.637Z,969.54
2022-10-18T17:42:31.613Z,969.54
2022-10-18T17:43:28.677Z,969.54
2022-10-18T17:44:28.793Z,969.57
2022-10-18T17:45:28.583Z,969.58
2022-10-18T17:46:28.564Z,969.61
2022-10-18T17:47:28.551Z,969.65
2022-10-18T17:48:28.534Z,969.64
2022-10-18T17:49:28.572Z,969.63
2022-10-18T17:50:28.525Z,969.60
2022-10-18T17:51:28.521Z,969.58
2022-10-18T17:52:28.495Z,969.62
2022-10-18T17:53:28.505Z,969.61
2022-10-18T17:54:28.605Z,969.60
2022-10-18T17:55:28.475Z,969.58
2022-10-18T17:56:28.489Z,969.61
2022-10-18T17:57:31.675Z,969.58
2022-10-18T17:58:28.454Z,969.61
2022-10-18T17:59:28.444Z,969.57
2022-10-18T18:00:28.413Z,969.58
2022-10-18T18:01:28.459Z,969.59
2022-10-18T18:02:28.400Z,969.56
2022-10-18T18:03:28.457Z,969.57
2022-10-18T18:04:28.366Z,969.55
2022-10-18T18:05:28.364Z,969.57
2022-10-18T18:06:28.349Z,969.58
2022-10-18T18:07:28.341Z,969.60
2022-10-18T18:08:28.329Z,969.58
2022-10-18T18:09:28.319Z,969.56
2022-10-18T18:10:28.310Z,969.54
2022-10-18T18:11:28.320Z,969.51
2022-10-18T18:12:31.628Z,969.52
2022-10-18T18:13:28.292Z,969.54
2022-10-18T18:14:28.283Z,969.59
2022-10-18T18:15:28.400Z,969.56
2022-10-18T18:16:28.274Z,969.54
2022-10-18T18:17:33.978Z,969.53
2022-10-18T18:18:29.263Z,969.53
2022-10-18T18:19:28.204Z,969.57
2022-10-18T18:20:28.200Z,969.54
2022-10-18T18:21:28.193Z,969.56
2022-10-18T18:22:28.183Z,969.56
2022-10-18T18:23:28.178Z,969.55
2022-10-18T18:24:28.154Z,969.57
2022-10-18T18:25:28.151Z,969.56
2022-10-18T18:26:28.135Z,969.55
2022-10-18T18:27:31.118Z,969.52
2022-10-18T18:28:28.211Z,969.52
2022-10-18T18:29:28.097Z,969.53
2022-10-18T18:30:28.085Z,969.48
2022-10-18T18:31:30.774Z,969.50
2022-10-18T18:32:28.068Z,969.45
2022-10-18T18:33:28.058Z,969.50
2022-10-18T18:34:28.048Z,969.47
2022-10-18T18:35:28.047Z,969.44
2022-10-18T18:36:28.027Z,969.46
2022-10-18T18:37:28.017Z,969.47
2022-10-18T18:38:28.040Z,969.44
2022-10-18T18:39:28.004Z,969.46
2022-10-18T18:40:27.991Z,969.44
2022-10-18T18:41:27.980Z,969.45
2022-10-18T18:42:31.348Z,969.44
2022-10-18T18:43:28.461Z,969.48
2022-10-18T18:44:28.273Z,969.50
2022-10-18T18:45:27.930Z,969.55
2022-10-18T18:46:27.913Z,969.53
2022-10-18T18:47:27.918Z,969.55
2022-10-18T18:48:27.919Z,969.54
2022-10-18T18:49:27.871Z,969.53
2022-10-18T18:50:27.872Z,969.56
2022-10-18T18:51:27.862Z,969.57
2022-10-18T18:52:27.851Z,969.54
2022-10-18T18:53:29.562Z,969.54
2022-10-18T18:54:27.826Z,969.56
2022-10-18T18:55:27.834Z,969.54
2022-10-18T18:56:27.804Z,969.54
2022-10-18T18:57:31.035Z,969.50
2022-10-18T18:58:27.795Z,969.52
2022-10-18T18:59:27.780Z,969.55
2022-10-18T19:00:27.854Z,969.52
2022-10-18T19:01:27.782Z,969.51
2022-10-18T19:02:27.787Z,969.54
2022-10-18T19:03:27.736Z,969.57
2022-10-18T19:04:27.732Z,969.56
2022-10-18T19:05:27.730Z,969.59
2022-10-18T19:06:27.709Z,969.58
2022-10-18T19:07:27.689Z,969.61
2022-10-18T19:08:27.665Z,969.58
2022-10-18T19:09:27.670Z,969.58
2022-10-18T19:10:27.683Z,969.56
2022-10-18T19:11:27.636Z,969.51
2022-10-18T19:12:31.791Z,969.54
2022-10-18T19:13:27.643Z,969.52
2022-10-18T19:14:27.709Z,969.53
2022-10-18T19:15:27.650Z,969.50
2022-10-18T19:16:27.599Z,969.48
2022-10-18T19:17:27.591Z,969.49
2022-10-18T19:18:27.582Z,969.52
2022-10-18T19:19:27.571Z,969.49
2022-10-18T19:20:27.562Z,969.59
2022-10-18T19:21:27.539Z,969.48
2022-10-18T19:22:27.530Z,969.54
2022-10-18T19:23:27.563Z,969.60
2022-10-18T19:24:27.529Z,969.57
2022-10-18T19:25:27.502Z,969.55
2022-10-18T19:26:27.498Z,969.61
2022-10-18T19:27:30.679Z,969.60
2022-10-18T19:28:27.573Z,969.58
2022-10-18T19:29:27.460Z,969.55
2022-10-18T19:30:27.478Z,969.59
2022-10-18T19:31:27.447Z,969.56
2022-10-18T19:33:41.242Z,969.55
2022-10-18T19:34:28.420Z,969.58
2022-10-18T19:35:27.395Z,969.56
2022-10-18T19:36:27.403Z,969.53
2022-10-18T19:37:27.428Z,969.54
2022-10-18T19:38:27.386Z,969.55
2022-10-18T19:39:27.366Z,969.56
2022-10-18T19:40:27.348Z,969.55
2022-10-18T19:41:27.352Z,969.57
2022-10-18T19:42:31.432Z,969.55
2022-10-18T19:43:27.349Z,969.57
2022-10-18T19:44:27.312Z,969.60
2022-10-18T19:45:27.334Z,969.60
2022-10-18T19:46:27.305Z,969.57
2022-10-18T19:47:27.269Z,969.52
2022-10-18T19:48:27.264Z,969.54
2022-10-18T19:49:27.253Z,969.57
2022-10-18T19:50:27.359Z,969.56
2022-10-18T19:51:28.491Z,969.57
2022-10-18T19:52:27.239Z,969.55
2022-10-18T19:53:27.288Z,969.54
2022-10-18T19:54:27.203Z,969.58
2022-10-18T19:55:27.289Z,969.55
2022-10-18T19:56:27.185Z,969.59
2022-10-18T19:57:30.179Z,969.60
2022-10-18T19:58:27.189Z,969.60
2022-10-18T19:59:27.248Z,969.59
2022-10-18T20:00:27.398Z,969.62
2022-10-18T20:01:27.192Z,969.63
2022-10-18T20:02:27.255Z,969.63
2022-10-18T20:03:27.127Z,969.64
2022-10-18T20:04:27.120Z,969.64
2022-10-18T20:05:27.114Z,969.64
2022-10-18T20:06:27.131Z,969.65
2022-10-18T20:07:27.159Z,969.67